Time;durP1;ratioP1;P1;durP2;ratioP2;P2;SDS_P1;SDS_P2;PMS_P1;PMS_P2;Temp;Humidity;BMP_temperature;BMP_pressure;BME280_temperature;BME280_humidity;BME280_pressure;Samples;Min_cycle;Max_cycle;Signal;HPM_P1;HPM_P2
2021/09/30 00:00:25;;;;;;;10.38;2.90;;;7.10;99.90;;;;;;6184419;23;20088;-89
2021/09/30 00:03:12;;;;;;;5.78;2.47;;;7.10;99.90;;;;;;6162932;23;20177;-89
2021/09/30 00:05:59;;;;;;;6.13;2.70;;;7.20;99.90;;;;;;6184871;23;20025;-90
2021/09/30 00:08:48;;;;;;;5.03;2.25;;;7.10;99.90;;;;;;6186837;23;20313;-87
2021/09/30 00:11:42;;;;;;;9.68;2.35;;;7.10;99.90;;;;;;6187216;23;20352;-90
2021/09/30 00:14:51;;;;;;;7.60;2.50;;;7.00;99.90;;;;;;6168734;23;20424;-89
2021/09/30 00:42:08;;;;;;;7.68;2.60;;;7.00;99.90;;;;;;6188171;23;20032;-89
2021/09/30 00:48:04;;;;;;;9.65;2.30;;;7.00;99.90;;;;;;6185827;23;20080;-89
2021/09/30 00:53:57;;;;;;;5.47;1.80;;;6.90;99.90;;;;;;6190521;23;20033;-89
2021/09/30 01:21:32;;;;;;;7.03;2.38;;;6.40;99.90;;;;;;6183634;23;20053;-87
2021/09/30 02:18:08;;;;;;;14.40;3.35;;;6.20;99.90;;;;;;6156208;23;20061;-89
2021/09/30 02:23:08;;;;;;;5.13;3.20;;;6.00;99.90;;;;;;6155231;23;20025;-90
2021/09/30 03:00:42;;;;;;;5.35;2.40;;;5.90;99.90;;;;;;6182659;23;20068;-89
2021/09/30 03:03:33;;;;;;;5.88;2.92;;;5.90;99.90;;;;;;6184037;23;20029;-91
2021/09/30 03:06:26;;;;;;;4.97;3.20;;;5.90;99.90;;;;;;6184591;23;20333;-90
2021/09/30 03:09:18;;;;;;;7.70;2.28;;;5.90;99.90;;;;;;6181649;23;20096;-89
2021/09/30 03:12:29;;;;;;;6.18;2.42;;;6.00;99.90;;;;;;6164625;23;20025;-90
2021/09/30 03:24:20;;;;;;;7.00;2.60;;;6.00;99.90;;;;;;6186586;23;20325;-90
2021/09/30 03:27:09;;;;;;;10.45;2.25;;;5.90;99.90;;;;;;6182129;23;20099;-89
2021/09/30 03:29:56;;;;;;;6.38;2.30;;;5.90;99.90;;;;;;6182232;23;20130;-90
2021/09/30 03:32:43;;;;;;;8.93;2.65;;;5.90;99.90;;;;;;6163277;23;20096;-90
2021/09/30 03:35:31;;;;;;;7.28;2.20;;;5.90;99.90;;;;;;6163550;23;20025;-90
2021/09/30 03:38:21;;;;;;;8.32;2.90;;;5.80;99.90;;;;;;6185610;23;20045;-89
2021/09/30 03:41:08;;;;;;;5.43;2.40;;;5.80;99.90;;;;;;6183156;23;20135;-90
2021/09/30 03:43:56;;;;;;;7.60;2.30;;;5.70;99.90;;;;;;6186713;23;20033;-88
2021/09/30 03:46:47;;;;;;;11.55;2.90;;;5.60;99.90;;;;;;6144757;23;20134;-91
2021/09/30 03:49:35;;;;;;;10.45;2.67;;;5.50;99.90;;;;;;6162957;23;20101;-89
2021/09/30 03:52:40;;;;;;;6.72;3.00;;;5.40;99.90;;;;;;6162580;23;20096;-90
2021/09/30 04:01:56;;;;;;;3.67;3.05;;;5.40;99.90;;;;;;6166460;23;20064;-89
2021/09/30 04:04:44;;;;;;;11.82;3.88;;;5.30;99.90;;;;;;6185529;23;20029;-90
2021/09/30 04:07:33;;;;;;;8.25;3.70;;;5.30;99.90;;;;;;6185376;23;20056;-90
2021/09/30 04:10:20;;;;;;;10.60;3.63;;;5.30;99.90;;;;;;6184496;23;20021;-92
2021/09/30 04:13:08;;;;;;;8.32;3.75;;;5.30;99.90;;;;;;6183931;23;20397;-91
2021/09/30 04:15:57;;;;;;;9.73;3.70;;;5.30;99.90;;;;;;6184184;23;20396;-91
2021/09/30 04:18:45;;;;;;;9.25;3.72;;;5.30;99.90;;;;;;6180713;23;20024;-90
2021/09/30 04:21:34;;;;;;;4.63;3.17;;;5.30;99.90;;;;;;6181349;23;20112;-90
2021/09/30 04:24:23;;;;;;;10.60;4.18;;;5.20;99.90;;;;;;6166828;23;20029;-92
2021/09/30 04:27:11;;;;;;;7.55;3.53;;;5.30;99.90;;;;;;6186848;23;20108;-92
2021/09/30 04:29:58;;;;;;;9.27;4.38;;;5.20;99.90;;;;;;6171312;23;20048;-93
2021/09/30 04:32:45;;;;;;;15.23;4.55;;;5.20;99.90;;;;;;6169698;23;20056;-93
2021/09/30 04:35:37;;;;;;;10.45;4.07;;;5.30;99.90;;;;;;6193986;23;20057;-93
2021/09/30 04:38:26;;;;;;;10.55;3.92;;;5.30;99.90;;;;;;6177759;23;20033;-93
2021/09/30 04:41:14;;;;;;;9.98;4.18;;;5.30;99.90;;;;;;6188999;23;20029;-93
2021/09/30 04:44:04;;;;;;;7.18;4.03;;;5.40;99.90;;;;;;6192380;23;20095;-94
2021/09/30 04:46:53;;;;;;;7.85;3.78;;;5.40;99.90;;;;;;6151665;23;20120;-93
2021/09/30 04:49:42;;;;;;;8.13;4.30;;;5.40;99.90;;;;;;6190442;23;20048;-92
2021/09/30 04:52:30;;;;;;;6.63;4.00;;;5.40;99.90;;;;;;6193844;23;20036;-93
2021/09/30 04:55:17;;;;;;;6.30;3.90;;;5.40;99.90;;;;;;6191367;23;20369;-94
2021/09/30 04:58:05;;;;;;;11.23;4.28;;;5.40;99.90;;;;;;6169790;23;20079;-93
2021/09/30 05:00:52;;;;;;;6.65;3.75;;;5.50;99.90;;;;;;6188525;23;20099;-92
2021/09/30 05:03:42;;;;;;;9.43;4.00;;;5.50;99.90;;;;;;6190714;23;20025;-93
2021/09/30 05:06:31;;;;;;;8.73;3.67;;;5.40;99.90;;;;;;6193662;23;20358;-87
2021/09/30 05:09:19;;;;;;;10.75;3.53;;;5.50;99.90;;;;;;6185547;23;20029;-87
2021/09/30 05:12:15;;;;;;;9.02;3.38;;;5.40;99.90;;;;;;6185205;23;20021;-89
2021/09/30 05:15:04;;;;;;;10.25;3.67;;;5.40;99.90;;;;;;6183851;23;20425;-88
2021/09/30 05:17:52;;;;;;;7.05;3.22;;;5.40;99.90;;;;;;6174515;23;20092;-91
2021/09/30 05:20:42;;;;;;;13.10;4.10;;;5.40;99.90;;;;;;6186503;23;20361;-90
2021/09/30 05:23:32;;;;;;;5.03;3.58;;;5.40;99.90;;;;;;6165820;23;20163;-90
2021/09/30 05:26:20;;;;;;;10.18;3.63;;;5.40;99.90;;;;;;6148243;23;20384;-92
2021/09/30 05:29:08;;;;;;;7.63;3.35;;;5.40;99.90;;;;;;6180130;23;20028;-90
2021/09/30 05:31:55;;;;;;;4.75;3.08;;;5.40;99.90;;;;;;6175253;23;20159;-91
2021/09/30 05:34:44;;;;;;;8.15;3.72;;;5.40;99.90;;;;;;6169577;23;20052;-90
2021/09/30 05:37:34;;;;;;;11.45;3.55;;;5.40;99.90;;;;;;6164934;23;20455;-90
2021/09/30 05:56:32;;;;;;;6.22;3.10;;;5.50;99.90;;;;;;6123333;23;20005;-93
2021/09/30 05:59:47;;;;;;;11.50;3.30;;;5.60;99.90;;;;;;6063087;23;20037;-91
2021/09/30 06:13:35;;;;;;;9.70;3.47;;;5.80;99.90;;;;;;5951328;24;20288;-92
2021/09/30 06:20:38;;;;;;;8.95;3.30;;;6.00;99.90;;;;;;5895854;24;20034;-90
2021/09/30 06:23:45;;;;;;;9.32;3.30;;;6.10;99.90;;;;;;5913642;24;20043;-91
2021/09/30 06:26:35;;;;;;;8.73;2.83;;;6.20;99.90;;;;;;5978275;23;20030;-91
2021/09/30 06:29:25;;;;;;;9.68;3.33;;;6.40;99.90;;;;;;6095436;23;20166;-92
2021/09/30 06:32:18;;;;;;;18.80;3.67;;;6.60;99.90;;;;;;6076872;23;20026;-91
2021/09/30 06:35:10;;;;;;;5.90;2.28;;;6.80;99.90;;;;;;6094077;23;20387;-91
2021/09/30 06:38:00;;;;;;;4.35;2.22;;;7.00;99.90;;;;;;6092958;23;20166;-92
2021/09/30 06:40:48;;;;;;;7.57;2.67;;;7.10;99.90;;;;;;6071848;23;20118;-91
2021/09/30 06:43:38;;;;;;;4.20;2.05;;;7.20;99.90;;;;;;6092736;23;20474;-91
2021/09/30 06:46:46;;;;;;;14.10;3.28;;;7.40;99.90;;;;;;6091572;23;20041;-91
2021/09/30 06:49:55;;;;;;;6.80;2.80;;;7.60;99.90;;;;;;6092223;23;20038;-90
2021/09/30 06:53:04;;;;;;;4.85;2.25;;;7.70;99.90;;;;;;6076485;23;20027;-92
2021/09/30 06:55:58;;;;;;;11.88;2.70;;;7.80;99.90;;;;;;6093262;23;20022;-90
2021/09/30 06:58:46;;;;;;;4.45;1.85;;;7.80;99.90;;;;;;6123665;23;20108;-91
2021/09/30 07:01:48;;;;;;;5.30;1.75;;;7.90;99.90;;;;;;6125465;23;20437;-88
2021/09/30 07:04:44;;;;;;;2.70;1.88;;;8.00;99.90;;;;;;6124973;23;20054;-91
2021/09/30 07:07:35;;;;;;;6.30;1.65;;;8.20;99.90;;;;;;6125371;23;20397;-91
2021/09/30 07:10:59;;;;;;;;;;;;;;;;;;;;;
2021/09/30 07:14:03;;;;;;;2.50;1.20;;;8.60;99.90;;;;;;6110070;23;20450;-92
2021/09/30 07:16:50;;;;;;;5.63;1.30;;;8.90;99.90;;;;;;6125990;23;20022;-91
2021/09/30 07:19:57;;;;;;;;;;;;;;;;;;;;;
2021/09/30 07:23:07;;;;;;;5.93;1.98;;;9.50;99.90;;;;;;6129438;23;20026;-92
2021/09/30 07:30:13;;;;;;;3.42;1.40;;;9.70;99.90;;;;;;6134419;23;20043;-91
2021/09/30 07:33:24;;;;;;;5.35;1.27;;;10.10;99.90;;;;;;6128080;23;20101;-92
2021/09/30 07:40:46;;;;;;;5.80;1.55;;;10.10;99.90;;;;;;6116648;23;20440;-91
2021/09/30 07:43:39;;;;;;;4.03;1.30;;;10.30;99.90;;;;;;6122561;23;20450;-92
2021/09/30 07:46:30;;;;;;;5.45;1.10;;;10.50;99.90;;;;;;6123060;23;20177;-90
2021/09/30 07:49:26;;;;;;;5.32;1.48;;;10.30;99.90;;;;;;6101311;23;20036;-92
2021/09/30 07:52:36;;;;;;;5.82;1.20;;;10.30;99.90;;;;;;6121829;23;20037;-93
2021/09/30 07:55:34;;;;;;;2.58;1.13;;;10.40;99.90;;;;;;6119400;23;20481;-92
2021/09/30 07:58:24;;;;;;;4.10;1.08;;;10.80;99.90;;;;;;6124637;23;20033;-93
2021/09/30 08:01:31;;;;;;;5.53;1.20;;;11.30;99.90;;;;;;6105398;23;20049;-92
2021/09/30 08:04:32;;;;;;;4.57;1.10;;;11.50;99.90;;;;;;6129549;23;20040;-91
2021/09/30 08:07:47;;;;;;;4.45;1.17;;;11.80;99.90;;;;;;6109830;23;20061;-93
2021/09/30 08:11:04;;;;;;;4.07;1.30;;;12.60;99.90;;;;;;6126879;23;20022;-91
2021/09/30 08:14:13;;;;;;;6.25;1.35;;;13.90;99.90;;;;;;6130314;23;20074;-90
2021/09/30 08:17:29;;;;;;;2.97;0.90;;;14.60;99.90;;;;;;6132351;23;20056;-93
2021/09/30 08:20:20;;;;;;;4.15;0.80;;;15.40;99.90;;;;;;6137138;23;20026;-91
2021/09/30 08:24:06;;;;;;;3.60;0.73;;;15.90;97.50;;;;;;6133008;23;20037;-93
2021/09/30 08:26:55;;;;;;;3.92;0.80;;;16.00;93.10;;;;;;6106296;23;20057;-92
2021/09/30 08:29:45;;;;;;;3.72;0.70;;;15.20;94.10;;;;;;6130615;23;20026;-91
2021/09/30 08:32:56;;;;;;;4.30;0.90;;;14.60;96.80;;;;;;6127962;23;20373;-92
2021/09/30 08:35:45;;;;;;;2.50;0.77;;;14.90;94.50;;;;;;6126645;23;20444;-92
2021/09/30 08:38:35;;;;;;;6.32;0.80;;;15.10;93.60;;;;;;6107192;23;20030;-91
2021/09/30 08:41:39;;;;;;;4.93;0.90;;;15.20;93.90;;;;;;6097158;23;20036;-91
2021/09/30 08:44:33;;;;;;;3.20;0.90;;;15.20;94.10;;;;;;6131320;23;20022;-90
2021/09/30 08:47:54;;;;;;;2.33;0.80;;;15.20;92.40;;;;;;6133541;23;20037;-93
2021/09/30 08:51:08;;;;;;;7.93;0.90;;;15.20;91.40;;;;;;6139285;23;20018;-92
2021/09/30 08:54:16;;;;;;;6.00;1.20;;;15.00;92.90;;;;;;6133752;23;20026;-92
2021/09/30 08:57:07;;;;;;;5.20;1.02;;;14.90;93.30;;;;;;6127827;23;20030;-90
2021/09/30 09:00:05;;;;;;;3.08;1.00;;;14.80;93.40;;;;;;6131755;23;20030;-89
2021/09/30 09:03:40;;;;;;;4.25;0.80;;;15.10;92.70;;;;;;6134672;23;20036;-90
2021/09/30 09:06:34;;;;;;;3.53;1.10;;;15.80;90.80;;;;;;6125909;23;20133;-90
2021/09/30 09:09:29;;;;;;;2.47;0.65;;;16.10;89.30;;;;;;6128059;23;20207;-92
2021/09/30 09:12:18;;;;;;;4.78;0.90;;;16.30;90.10;;;;;;6109376;23;20038;-92
2021/09/30 09:15:59;;;;;;;4.85;0.93;;;16.70;85.20;;;;;;6122053;23;20092;-90
2021/09/30 09:19:28;;;;;;;3.92;0.80;;;17.20;78.20;;;;;;6127083;23;20025;-93
2021/09/30 09:22:30;;;;;;;6.00;0.70;;;17.50;75.50;;;;;;6124897;23;20055;-91
2021/09/30 09:25:29;;;;;;;;;;;;;;;;;;;;;
2021/09/30 09:29:01;;;;;;;2.83;0.60;;;19.80;63.10;;;;;;6126252;23;20271;-91
2021/09/30 09:32:07;;;;;;;3.13;0.73;;;20.40;59.80;;;;;;6128027;23;20026;-91
2021/09/30 09:35:28;;;;;;;4.15;0.75;;;20.50;58.30;;;;;;6129839;23;20066;-90
2021/09/30 09:38:20;;;;;;;1.88;0.50;;;20.70;55.80;;;;;;6125962;23;20022;-89
2021/09/30 09:41:26;;;;;;;2.22;0.70;;;21.40;51.30;;;;;;6129035;23;20041;-92
2021/09/30 09:44:21;;;;;;;2.88;0.88;;;22.10;53.50;;;;;;6127740;23;20030;-91
2021/09/30 09:48:11;;;;;;;3.42;0.60;;;21.60;53.10;;;;;;6071316;23;20038;-92
2021/09/30 09:51:48;;;;;;;;;;;;;;;;;;;;;
2021/09/30 09:55:09;;;;;;;3.85;0.95;;;21.80;52.60;;;;;;6037953;23;20446;-92
2021/09/30 09:58:05;;;;;;;4.88;0.80;;;21.50;50.70;;;;;;6027321;23;20133;-91
2021/09/30 10:01:00;;;;;;;3.90;0.80;;;20.40;51.70;;;;;;6040452;23;20054;-89
2021/09/30 10:03:57;;;;;;;5.07;0.70;;;20.10;53.30;;;;;;6040287;23;20090;-91
2021/09/30 10:07:10;;;;;;;4.38;0.80;;;20.30;52.50;;;;;;5956077;24;20127;-91
2021/09/30 10:10:43;;;;;;;2.60;0.63;;;19.00;54.90;;;;;;5959001;24;20073;-93
2021/09/30 10:13:44;;;;;;;5.88;0.80;;;18.50;56.80;;;;;;5967312;23;20023;-94
2021/09/30 10:16:49;;;;;;;;;;;;;;;;;;;;;
2021/09/30 10:20:00;;;;;;;3.92;1.13;;;17.20;56.30;;;;;;6025032;23;20110;-93
2021/09/30 10:22:55;;;;;;;4.38;0.75;;;16.50;59.80;;;;;;6018070;23;20035;-93
2021/09/30 10:30:31;;;;;;;2.90;0.52;;;17.00;62.40;;;;;;5905111;24;20089;-93
2021/09/30 10:33:42;;;;;;;;;;;18.40;57.80;;;;;;5908342;24;20030;-93
2021/09/30 10:37:15;;;;;;;4.10;0.60;;;19.00;56.80;;;;;;5908025;24;19968;-94
2021/09/30 10:40:42;;;;;;;4.18;0.95;;;19.40;54.80;;;;;;5948995;23;20038;-94
2021/09/30 10:52:58;;;;;;;4.30;0.77;;;20.50;56.90;;;;;;6136250;23;20018;-93
2021/09/30 10:55:56;;;;;;;1.98;0.52;;;23.20;47.10;;;;;;6112333;23;20030;-92
2021/09/30 10:59:15;;;;;;;;;;;;;;;;;;;;;
2021/09/30 11:02:18;;;;;;;6.28;0.73;;;21.30;46.60;;;;;;6124962;23;20021;-90
2021/09/30 11:05:13;;;;;;;2.13;0.43;;;21.20;48.50;;;;;;6111154;23;20086;-90
2021/09/30 11:08:24;;;;;;;2.63;0.50;;;21.80;48.40;;;;;;6090723;23;20054;-90
2021/09/30 11:11:26;;;;;;;2.65;0.40;;;22.80;44.40;;;;;;6129545;23;20100;-91
2021/09/30 11:14:25;;;;;;;3.25;0.55;;;22.90;42.60;;;;;;6128359;23;20026;-90
2021/09/30 11:17:36;;;;;;;1.92;0.47;;;23.00;43.30;;;;;;6127661;23;20375;-91
2021/09/30 11:20:35;;;;;;;2.08;0.50;;;23.00;39.80;;;;;;6109499;23;20034;-91
2021/09/30 11:24:53;;;;;;;2.03;0.63;;;22.50;38.50;;;;;;6130176;23;20398;-91
2021/09/30 11:27:45;;;;;;;1.90;0.40;;;22.50;39.40;;;;;;6014832;23;20131;-93
2021/09/30 11:30:35;;;;;;;3.03;0.50;;;23.50;44.20;;;;;;6011480;23;20023;-91
2021/09/30 11:33:23;;;;;;;3.08;0.77;;;24.80;40.20;;;;;;6013581;23;20042;-92
2021/09/30 11:36:10;;;;;;;1.27;0.45;;;25.40;37.70;;;;;;6013197;23;20027;-92
2021/09/30 11:38:58;;;;;;;2.92;0.95;;;24.70;38.00;;;;;;5987802;23;20024;-89
2021/09/30 11:41:48;;;;;;;3.85;0.68;;;25.40;39.10;;;;;;6012855;23;20054;-91
2021/09/30 11:44:35;;;;;;;1.92;0.50;;;26.30;39.20;;;;;;5992936;23;20128;-90
2021/09/30 11:47:29;;;;;;;3.10;0.70;;;26.70;39.60;;;;;;5992509;23;20028;-93
2021/09/30 11:50:26;;;;;;;6.93;0.75;;;26.50;37.50;;;;;;6015872;23;20035;-91
2021/09/30 11:53:15;;;;;;;2.13;0.50;;;26.10;37.80;;;;;;6110843;23;20021;-92
2021/09/30 11:56:10;;;;;;;3.23;0.63;;;27.40;37.30;;;;;;6132236;23;20097;-90
2021/09/30 11:59:01;;;;;;;2.20;0.60;;;25.90;37.50;;;;;;6130212;23;20113;-90
2021/09/30 12:02:05;;;;;;;1.88;0.40;;;23.60;42.80;;;;;;6107662;23;20025;-91
2021/09/30 12:04:52;;;;;;;4.13;0.70;;;22.20;43.60;;;;;;6129904;23;20314;-90
2021/09/30 12:07:42;;;;;;;4.32;0.70;;;21.00;46.20;;;;;;6110625;23;20037;-89
2021/09/30 12:10:59;;;;;;;4.05;0.60;;;20.10;45.80;;;;;;6130248;23;20049;-91
2021/09/30 12:13:57;;;;;;;4.00;0.68;;;19.60;49.00;;;;;;6106879;23;20041;-90
2021/09/30 12:17:17;;;;;;;3.08;0.85;;;19.80;47.20;;;;;;6130658;23;20104;-91
2021/09/30 12:20:10;;;;;;;5.63;0.75;;;21.60;47.70;;;;;;6141728;23;20037;-92
2021/09/30 12:27:40;;;;;;;1.88;0.52;;;22.10;43.90;;;;;;6093118;23;20017;-93
2021/09/30 12:30:49;;;;;;;3.25;0.55;;;22.40;45.90;;;;;;6146061;23;20041;-92
2021/09/30 12:34:21;;;;;;;4.07;0.70;;;23.80;44.20;;;;;;6123573;23;20025;-91
2021/09/30 12:37:08;;;;;;;2.15;0.68;;;26.20;37.00;;;;;;6146814;23;20084;-92
2021/09/30 12:40:35;;;;;;;3.78;0.50;;;27.50;33.50;;;;;;6121643;23;20050;-91
2021/09/30 12:43:31;;;;;;;1.58;0.75;;;28.70;34.00;;;;;;6109125;23;20104;-91
2021/09/30 12:46:19;;;;;;;2.55;0.60;;;28.60;31.50;;;;;;6111256;23;20400;-91
2021/09/30 12:49:16;;;;;;;3.58;0.85;;;28.70;31.50;;;;;;6108810;23;20026;-93
2021/09/30 12:52:45;;;;;;;3.90;0.50;;;28.10;34.30;;;;;;6129611;23;20037;-92
2021/09/30 12:55:33;;;;;;;2.25;0.70;;;28.10;31.70;;;;;;6151834;23;20030;-93
2021/09/30 13:02:23;;;;;;;3.45;0.52;;;28.00;32.90;;;;;;6167054;23;20082;-93
2021/09/30 13:05:20;;;;;;;3.08;0.80;;;26.50;33.80;;;;;;6144539;23;20284;-93
2021/09/30 13:08:07;;;;;;;3.47;0.75;;;26.30;33.50;;;;;;6167215;23;20026;-93
2021/09/30 13:10:54;;;;;;;1.63;0.55;;;25.60;35.00;;;;;;6142721;23;20025;-93
2021/09/30 13:14:06;;;;;;;3.45;0.85;;;26.20;34.70;;;;;;6146377;23;20089;-92
2021/09/30 13:17:09;;;;;;;3.17;0.52;;;26.80;32.30;;;;;;6154897;23;20029;-92
2021/09/30 13:20:06;;;;;;;4.43;1.00;;;26.40;32.80;;;;;;6177701;23;20101;-93
2021/09/30 13:22:53;;;;;;;3.00;0.60;;;25.90;34.80;;;;;;6176659;23;20080;-94
2021/09/30 13:25:41;;;;;;;1.98;0.50;;;25.90;35.10;;;;;;6174417;23;20025;-93
2021/09/30 13:28:30;;;;;;;3.72;0.40;;;25.90;35.40;;;;;;6172441;23;20040;-92
2021/09/30 13:31:17;;;;;;;2.42;0.63;;;25.70;37.60;;;;;;6174970;23;20084;-93
2021/09/30 13:34:05;;;;;;;5.13;0.65;;;25.50;36.50;;;;;;6173202;23;20022;-91
2021/09/30 13:36:55;;;;;;;3.10;0.77;;;25.70;34.90;;;;;;6151847;23;20025;-93
2021/09/30 13:39:42;;;;;;;2.30;0.63;;;26.50;32.80;;;;;;6169024;23;20033;-93
2021/09/30 13:42:31;;;;;;;1.17;0.40;;;26.70;32.00;;;;;;6161245;23;20314;-93
2021/09/30 13:45:23;;;;;;;1.85;0.60;;;26.90;34.60;;;;;;6158229;23;20449;-92
2021/09/30 13:48:12;;;;;;;2.22;0.57;;;26.90;33.80;;;;;;6137253;23;20413;-92
2021/09/30 13:50:59;;;;;;;4.30;0.57;;;27.70;32.00;;;;;;6163160;23;20048;-94
2021/09/30 13:53:46;;;;;;;4.00;0.68;;;25.90;34.40;;;;;;6154036;23;20052;-90
2021/09/30 13:56:36;;;;;;;3.25;0.75;;;24.70;35.70;;;;;;6115595;23;20430;-90
2021/09/30 13:59:23;;;;;;;3.95;0.73;;;24.00;38.20;;;;;;6155346;23;20084;-92
2021/09/30 14:02:31;;;;;;;4.88;0.57;;;24.10;37.70;;;;;;6154933;23;20028;-94
2021/09/30 14:05:21;;;;;;;2.28;0.60;;;24.50;36.50;;;;;;6152246;23;20029;-90
2021/09/30 14:08:11;;;;;;;4.28;0.70;;;25.10;34.80;;;;;;6161657;23;20084;-89
2021/09/30 14:11:00;;;;;;;3.97;0.60;;;25.40;36.80;;;;;;6154519;23;20336;-92
2021/09/30 14:13:55;;;;;;;5.30;0.93;;;25.60;38.80;;;;;;6158021;23;20029;-91
2021/09/30 14:16:44;;;;;;;3.03;0.90;;;26.00;36.90;;;;;;6180017;23;20277;-94
2021/09/30 14:19:31;;;;;;;1.17;0.38;;;26.30;36.20;;;;;;6186283;23;20036;-92
2021/09/30 14:22:25;;;;;;;2.08;0.60;;;27.00;33.70;;;;;;6193642;23;20072;-92
2021/09/30 14:25:18;;;;;;;1.40;0.55;;;27.50;31.20;;;;;;6168713;23;20064;-91
2021/09/30 14:28:07;;;;;;;3.40;0.55;;;27.30;32.80;;;;;;6144476;23;20056;-92
2021/09/30 14:31:15;;;;;;;1.60;0.60;;;27.60;33.90;;;;;;6187853;23;20043;-92
2021/09/30 14:34:50;;;;;;;2.88;0.80;;;27.30;31.20;;;;;;6193743;23;20312;-94
2021/09/30 14:42:20;;;;;;;2.97;0.60;;;26.10;36.50;;;;;;5969655;24;20061;-93
2021/09/30 14:45:25;;;;;;;7.20;0.90;;;25.90;34.10;;;;;;6030778;23;20022;-92
2021/09/30 14:48:52;;;;;;;1.25;0.50;;;25.40;35.60;;;;;;6007732;23;20031;-89
2021/09/30 14:51:39;;;;;;;2.15;0.63;;;24.60;37.90;;;;;;6165377;23;20029;-92
2021/09/30 14:54:29;;;;;;;0.85;0.50;;;25.30;35.00;;;;;;6174164;23;20040;-92
2021/09/30 14:57:20;;;;;;;1.38;0.60;;;24.50;37.00;;;;;;6194842;23;20494;-91
2021/09/30 15:00:12;;;;;;;5.80;0.73;;;23.80;39.90;;;;;;6192097;23;20064;-94
2021/09/30 15:26:16;;;;;;;3.53;1.20;;;24.30;36.20;;;;;;6067737;23;20398;-94
2021/09/30 15:29:13;;;;;;;2.15;0.70;;;23.20;39.10;;;;;;6131102;23;20040;-92
2021/09/30 15:32:10;;;;;;;2.45;0.50;;;22.90;40.10;;;;;;6134843;23;20036;-94
2021/09/30 15:35:18;;;;;;;1.35;0.52;;;22.80;39.10;;;;;;6113283;23;20026;-94
2021/09/30 15:38:10;;;;;;;1.83;0.40;;;22.60;40.20;;;;;;6130317;23;20033;-91
2021/09/30 15:41:07;;;;;;;;;;;;;;;;;;;;;
2021/09/30 15:44:27;;;;;;;4.03;0.70;;;22.10;39.70;;;;;;6132827;23;20026;-94
2021/09/30 15:47:40;;;;;;;2.83;0.68;;;21.80;40.30;;;;;;6108873;23;20029;-93
2021/09/30 15:53:30;;;;;;;1.88;0.55;;;21.60;42.10;;;;;;6130677;23;20030;-91
2021/09/30 15:56:21;;;;;;;2.85;0.80;;;21.50;41.20;;;;;;6125360;23;20129;-91
2021/09/30 15:59:14;;;;;;;6.60;1.05;;;21.70;42.60;;;;;;6125371;23;20049;-90
2021/09/30 16:02:05;;;;;;;2.22;0.88;;;22.00;41.30;;;;;;6124966;23;20315;-90
2021/09/30 16:04:53;;;;;;;3.80;0.73;;;21.90;43.20;;;;;;6126944;23;20074;-90
2021/09/30 16:07:43;;;;;;;8.15;0.77;;;21.50;44.30;;;;;;6130170;23;20022;-90
2021/09/30 16:25:29;;;;;;;3.70;0.70;;;18.80;49.60;;;;;;6106112;23;20025;-91
2021/09/30 16:28:18;;;;;;;0.88;0.43;;;18.50;49.90;;;;;;6124662;23;20049;-89
2021/09/30 16:31:07;;;;;;;1.85;0.80;;;17.80;52.00;;;;;;6129574;23;20040;-90
2021/09/30 16:33:54;;;;;;;3.17;1.15;;;17.00;52.20;;;;;;6139679;23;20097;-91
2021/09/30 16:36:44;;;;;;;4.03;1.20;;;16.20;58.30;;;;;;6138067;23;20045;-91
2021/09/30 16:39:32;;;;;;;6.45;1.80;;;15.40;59.10;;;;;;6123610;23;20401;-89
2021/09/30 16:42:25;;;;;;;4.45;1.33;;;14.70;62.70;;;;;;6126740;23;20050;-93
2021/09/30 16:45:14;;;;;;;;;;;14.10;64.10;;;;;;6110741;23;20033;-91
2021/09/30 16:48:03;;;;;;;3.90;1.73;;;13.60;64.80;;;;;;6113323;23;19991;-91
2021/09/30 16:51:03;;;;;;;6.15;1.50;;;13.20;65.90;;;;;;6139206;23;20022;-91
2021/09/30 16:58:24;;;;;;;5.38;1.33;;;12.60;68.40;;;;;;5997230;23;20120;-94
2021/09/30 17:09:37;;;;;;;;;;;;;;;;;;;;;
2021/09/30 17:13:42;;;;;;;;;;;;;;;;;;;;;
2021/09/30 17:16:56;;;;;;;1.95;1.20;;;11.50;77.20;;;;;;5931504;24;20127;-93
2021/09/30 17:36:18;;;;;;;;;;;;;;;;;;;;;
2021/09/30 17:48:03;;;;;;;2.05;1.13;;;9.90;99.90;;;;;;5849234;24;20381;-94
2021/09/30 17:51:45;;;;;;;;;;;;;;;;;;;;;
2021/09/30 17:55:18;;;;;;;6.53;2.78;;;9.80;99.90;;;;;;5983427;23;20028;-93
2021/09/30 17:58:19;;;;;;;3.35;1.80;;;9.80;99.90;;;;;;6003505;23;20121;-94
2021/09/30 18:02:00;;;;;;;;;;;;;;;;;;;;;
2021/09/30 18:05:13;;;;;;;3.33;1.30;;;9.70;99.90;;;;;;6071323;23;20019;-91
2021/09/30 18:08:52;;;;;;;;;;;;;;;;;;;;;
2021/09/30 18:24:21;;;;;;;4.82;1.70;;;8.70;99.90;;;;;;6017276;23;20118;-91
2021/09/30 18:27:13;;;;;;;2.80;1.70;;;8.50;99.90;;;;;;5990813;23;20103;-90
2021/09/30 18:30:01;;;;;;;2.83;1.70;;;8.40;99.90;;;;;;6168233;23;20049;-92
2021/09/30 18:32:49;;;;;;;4.72;1.60;;;8.30;99.90;;;;;;6198765;23;20101;-93
2021/09/30 18:35:37;;;;;;;2.88;1.80;;;8.30;99.90;;;;;;6198124;23;20064;-91
2021/09/30 18:38:24;;;;;;;11.10;2.60;;;8.20;99.90;;;;;;6195141;23;20029;-91
2021/09/30 18:41:14;;;;;;;5.35;2.35;;;8.20;99.90;;;;;;6194119;23;20025;-92
2021/09/30 18:44:53;;;;;;;;;;;;;;;;;;;;;
2021/09/30 19:00:09;;;;;;;7.85;2.40;;;7.90;99.90;;;;;;6038691;23;20124;-94
2021/09/30 19:03:44;;;;;;;3.08;2.28;;;7.90;99.90;;;;;;6009875;23;20027;-92
2021/09/30 19:11:12;;;;;;;;;;;;;;;;;;;;;
2021/09/30 19:14:17;;;;;;;4.88;3.00;;;7.70;99.90;;;;;;6047933;23;20201;-92
2021/09/30 19:17:31;;;;;;;8.45;3.40;;;7.60;99.90;;;;;;6013258;23;20039;-92
2021/09/30 19:20:53;;;;;;;10.48;3.92;;;7.60;99.90;;;;;;5971776;24;20163;-92
2021/09/30 19:23:45;;;;;;;6.07;3.88;;;7.40;99.90;;;;;;5976489;23;20218;-91
2021/09/30 19:26:35;;;;;;;6.90;4.00;;;7.40;99.90;;;;;;6111193;23;20077;-91
2021/09/30 19:30:02;;;;;;;8.45;3.97;;;7.30;99.90;;;;;;6119367;23;20036;-93
2021/09/30 19:32:55;;;;;;;5.35;3.25;;;7.20;99.90;;;;;;6137101;23;20053;-93
2021/09/30 19:35:42;;;;;;;7.15;3.35;;;7.20;99.90;;;;;;6120839;23;20033;-92
2021/09/30 19:38:29;;;;;;;16.02;3.80;;;7.20;99.90;;;;;;6146436;23;20033;-93
2021/09/30 19:41:20;;;;;;;5.03;3.60;;;7.20;99.90;;;;;;6203350;23;20025;-93
2021/09/30 19:44:22;;;;;;;5.93;3.63;;;7.20;99.90;;;;;;6202322;23;20068;-94
2021/09/30 19:47:27;;;;;;;8.73;3.55;;;7.20;99.90;;;;;;6188727;23;20021;-92
2021/09/30 19:50:25;;;;;;;7.43;3.97;;;7.10;99.90;;;;;;6186627;23;20025;-92
2021/09/30 19:53:23;;;;;;;5.65;3.60;;;7.00;99.90;;;;;;6186439;23;20048;-92
2021/09/30 19:56:16;;;;;;;7.70;4.75;;;7.00;99.90;;;;;;6204561;23;20036;-94
2021/09/30 19:59:17;;;;;;;8.00;3.67;;;7.00;99.90;;;;;;6205883;23;20029;-92
2021/09/30 20:02:08;;;;;;;7.90;3.40;;;6.90;99.90;;;;;;6199938;23;20029;-94
2021/09/30 20:05:13;;;;;;;5.55;3.92;;;6.80;99.90;;;;;;6202097;23;20025;-92
2021/09/30 20:08:03;;;;;;;4.45;3.20;;;6.80;99.90;;;;;;6200025;23;20055;-91
2021/09/30 20:10:56;;;;;;;8.20;3.08;;;6.80;99.90;;;;;;6203417;23;20416;-89
2021/09/30 20:13:57;;;;;;;8.57;3.53;;;6.70;99.90;;;;;;6182358;23;20028;-90
2021/09/30 20:26:54;;;;;;;;;;;;;;;;;;;;;
2021/09/30 20:30:07;;;;;;;6.30;3.35;;;6.70;99.90;;;;;;6167298;23;20016;-92
2021/09/30 20:33:03;;;;;;;9.45;4.97;;;6.70;99.90;;;;;;6208315;23;20016;-91
2021/09/30 20:35:56;;;;;;;10.20;4.25;;;6.70;99.90;;;;;;6207008;23;20032;-91
2021/09/30 20:38:44;;;;;;;10.43;4.65;;;6.80;99.90;;;;;;6125068;23;20052;-92
2021/09/30 20:45:03;;;;;;;5.55;3.80;;;6.80;99.90;;;;;;6089991;23;20481;-92
2021/09/30 20:52:12;;;;;;;13.38;5.07;;;6.70;99.90;;;;;;5935919;24;19927;-91
2021/09/30 20:55:21;;;;;;;11.95;5.90;;;6.70;99.90;;;;;;5935688;24;20481;-92
2021/09/30 20:59:00;;;;;;;11.00;5.45;;;6.80;99.90;;;;;;5903050;24;20052;-92
2021/09/30 21:02:08;;;;;;;11.35;6.53;;;6.70;99.90;;;;;;5886843;24;20021;-92
2021/09/30 21:05:19;;;;;;;9.27;6.47;;;6.60;99.90;;;;;;5913760;24;20425;-91
2021/09/30 21:08:06;;;;;;;13.48;6.82;;;6.70;99.90;;;;;;5944663;23;20059;-88
2021/09/30 21:10:54;;;;;;;13.00;7.10;;;6.70;99.90;;;;;;6006895;23;20095;-89
2021/09/30 21:13:44;;;;;;;9.32;6.53;;;6.60;99.90;;;;;;5994280;23;20130;-90
2021/09/30 21:16:31;;;;;;;11.63;6.47;;;6.60;99.90;;;;;;6066269;23;20030;-89
2021/09/30 21:19:24;;;;;;;10.93;6.13;;;6.60;99.90;;;;;;6090941;23;20037;-88
2021/09/30 21:22:11;;;;;;;10.25;5.25;;;6.60;99.90;;;;;;6104457;23;20030;-89
2021/09/30 21:24:58;;;;;;;9.43;4.95;;;6.50;99.90;;;;;;6123311;23;20081;-89
2021/09/30 21:27:46;;;;;;;8.02;4.80;;;6.40;99.90;;;;;;6123057;23;20374;-90
2021/09/30 21:30:33;;;;;;;10.95;4.97;;;6.40;99.90;;;;;;6103466;23;20026;-89
2021/09/30 21:33:21;;;;;;;6.85;4.40;;;6.20;99.90;;;;;;6123252;23;20334;-89
2021/09/30 21:36:08;;;;;;;7.55;4.57;;;6.20;99.90;;;;;;6123816;23;20101;-88
2021/09/30 21:38:58;;;;;;;7.95;4.72;;;6.10;99.90;;;;;;6121499;23;20030;-88
2021/09/30 21:41:47;;;;;;;6.95;4.47;;;6.20;99.90;;;;;;6124426;23;20161;-88
2021/09/30 21:44:37;;;;;;;10.25;5.22;;;6.30;99.90;;;;;;6125596;23;20042;-89
2021/09/30 21:47:25;;;;;;;7.93;5.07;;;6.20;99.90;;;;;;6121718;23;20026;-89
2021/09/30 21:50:13;;;;;;;9.35;5.22;;;6.20;99.90;;;;;;6121594;23;20083;-90